Time;durP1;ratioP1;P1;durP2;ratioP2;P2;SDS_P1;SDS_P2;PMS_P1;PMS_P2;Temp;Humidity;BMP_temperature;BMP_pressure;BME280_temperature;BME280_humidity;BME280_pressure;Samples;Min_cycle;Max_cycle;Signal;HPM_P1;HPM_P2
2024/03/01 00:02:15;;;;;;;31.00;18.75;;;;;;;;;;5053894;28;20186;-57
2024/03/01 00:04:42;;;;;;;26.65;18.65;;;;;;;;;;5053450;28;20511;-55
2024/03/01 00:07:08;;;;;;;24.63;17.65;;;;;;;;;;5053363;28;20108;-55
2024/03/01 00:09:33;;;;;;;27.33;18.45;;;;;;;;;;5053933;28;20115;-55
2024/03/01 00:11:59;;;;;;;25.42;18.73;;;;;;;;;;5053667;28;20033;-56
2024/03/01 00:14:25;;;;;;;27.48;17.85;;;;;;;;;;5053358;28;20021;-55
2024/03/01 00:16:51;;;;;;;28.52;19.33;;;;;;;;;;5054339;28;20481;-57
2024/03/01 00:19:17;;;;;;;31.15;19.63;;;;;;;;;;5057901;28;20452;-57
2024/03/01 00:21:43;;;;;;;27.98;18.88;;;;;;;;;;5057243;28;20029;-57
2024/03/01 00:24:09;;;;;;;25.35;18.20;;;;;;;;;;5057752;28;20344;-57
2024/03/01 00:26:35;;;;;;;23.70;19.05;;;;;;;;;;5057075;28;20374;-55
2024/03/01 00:29:01;;;;;;;29.40;18.88;;;;;;;;;;5057748;28;20359;-56
2024/03/01 00:31:27;;;;;;;28.52;19.23;;;;;;;;;;5057089;28;20032;-57
2024/03/01 00:33:53;;;;;;;29.13;19.80;;;;;;;;;;5057507;28;20025;-56
2024/03/01 00:36:19;;;;;;;28.80;20.00;;;;;;;;;;5056953;28;20435;-57
2024/03/01 00:38:45;;;;;;;29.60;19.75;;;;;;;;;;5057118;28;20485;-57
2024/03/01 00:41:11;;;;;;;26.60;19.38;;;;;;;;;;5056759;28;20037;-55
2024/03/01 00:43:38;;;;;;;27.33;19.70;;;;;;;;;;5056838;28;20035;-56
2024/03/01 00:46:04;;;;;;;25.80;18.65;;;;;;;;;;5057331;28;20028;-55
2024/03/01 00:48:32;;;;;;;29.77;18.63;;;;;;;;;;5057088;28;20025;-56
2024/03/01 00:50:58;;;;;;;31.65;18.92;;;;;;;;;;5056632;28;20029;-57
2024/03/01 00:53:24;;;;;;;27.90;18.80;;;;;;;;;;5056704;28;20120;-55
2024/03/01 00:55:49;;;;;;;32.85;20.08;;;;;;;;;;5057081;28;20025;-58
2024/03/01 00:58:16;;;;;;;26.77;20.08;;;;;;;;;;5056909;28;20045;-54
2024/03/01 01:00:42;;;;;;;27.90;20.55;;;;;;;;;;5056382;28;20041;-56
2024/03/01 01:03:08;;;;;;;27.90;21.20;;;;;;;;;;5056706;28;20033;-55
2024/03/01 01:05:34;;;;;;;25.45;18.77;;;;;;;;;;5056900;28;20036;-57
2024/03/01 01:08:00;;;;;;;29.25;19.83;;;;;;;;;;5056177;28;20029;-55
2024/03/01 01:10:28;;;;;;;26.27;19.73;;;;;;;;;;5056377;28;20029;-57
2024/03/01 01:12:54;;;;;;;27.20;18.65;;;;;;;;;;5057030;28;20191;-56
2024/03/01 01:15:20;;;;;;;27.27;19.15;;;;;;;;;;5056489;28;20104;-57
2024/03/01 01:17:46;;;;;;;27.02;19.33;;;;;;;;;;5056388;28;20025;-55
2024/03/01 01:20:13;;;;;;;28.52;19.23;;;;;;;;;;5056013;28;20029;-54
2024/03/01 01:22:39;;;;;;;29.92;18.90;;;;;;;;;;5056397;28;20518;-55
2024/03/01 01:25:06;;;;;;;30.48;18.83;;;;;;;;;;5056542;28;20079;-53
2024/03/01 01:27:32;;;;;;;24.88;17.92;;;;;;;;;;5056386;28;20036;-54
2024/03/01 01:29:58;;;;;;;28.20;20.02;;;;;;;;;;5056341;28;20032;-56
2024/03/01 01:32:24;;;;;;;31.58;20.92;;;;;;;;;;5056227;28;20029;-54
2024/03/01 01:34:50;;;;;;;30.80;21.17;;;;;;;;;;5055861;28;20029;-54
2024/03/01 01:37:16;;;;;;;28.92;19.52;;;;;;;;;;5055850;28;20033;-56
2024/03/01 01:39:42;;;;;;;30.70;21.67;;;;;;;;;;5056355;28;20440;-55
2024/03/01 01:42:08;;;;;;;28.48;19.90;;;;;;;;;;5055615;28;20124;-57
2024/03/01 01:44:34;;;;;;;28.48;20.08;;;;;;;;;;5055623;28;20058;-55
2024/03/01 01:47:00;;;;;;;29.83;20.48;;;;;;;;;;5056079;28;20025;-54
2024/03/01 01:49:27;;;;;;;24.05;19.80;;;;;;;;;;5056439;28;20367;-52
2024/03/01 01:51:53;;;;;;;34.22;20.02;;;;;;;;;;5055521;28;20033;-55
2024/03/01 01:54:19;;;;;;;29.20;22.80;;;;;;;;;;5056086;28;20021;-53
2024/03/01 01:56:46;;;;;;;25.83;20.25;;;;;;;;;;5055056;28;20045;-52
2024/03/01 01:59:13;;;;;;;24.77;19.05;;;;;;;;;;5055652;28;20028;-57
2024/03/01 02:01:39;;;;;;;25.90;19.05;;;;;;;;;;5055221;28;20460;-55
2024/03/01 02:04:05;;;;;;;32.05;20.85;;;;;;;;;;5055295;28;20040;-56
2024/03/01 02:06:31;;;;;;;27.52;20.70;;;;;;;;;;5055233;28;20025;-53
2024/03/01 02:08:57;;;;;;;23.63;18.13;;;;;;;;;;5055306;28;20108;-55
2024/03/01 02:11:26;;;;;;;24.90;19.05;;;;;;;;;;5054887;28;20029;-53
2024/03/01 02:13:55;;;;;;;28.75;19.40;;;;;;;;;;5055061;28;20116;-56
2024/03/01 02:16:21;;;;;;;26.73;20.13;;;;;;;;;;5055889;28;20034;-53
2024/03/01 02:18:50;;;;;;;27.20;19.45;;;;;;;;;;5055085;28;20087;-56
2024/03/01 02:21:18;;;;;;;30.48;20.35;;;;;;;;;;5055397;28;20352;-55
2024/03/01 02:23:43;;;;;;;29.80;20.98;;;;;;;;;;5054963;28;20029;-53
2024/03/01 02:26:09;;;;;;;30.42;21.70;;;;;;;;;;5054955;28;20028;-55
2024/03/01 02:28:42;;;;;;;25.45;18.70;;;;;;;;;;5055088;28;20048;-57
2024/03/01 02:31:08;;;;;;;28.08;19.77;;;;;;;;;;5055331;28;20029;-57
2024/03/01 02:33:35;;;;;;;30.42;19.17;;;;;;;;;;5055084;28;20033;-57
2024/03/01 02:36:01;;;;;;;25.60;19.23;;;;;;;;;;5054933;28;20027;-57
2024/03/01 02:38:28;;;;;;;29.65;18.75;;;;;;;;;;5054908;28;20025;-55
2024/03/01 02:40:54;;;;;;;29.00;18.50;;;;;;;;;;5053956;28;20041;-57
2024/03/01 02:43:20;;;;;;;30.25;20.40;;;;;;;;;;5054577;28;20486;-57
2024/03/01 02:45:46;;;;;;;26.15;19.75;;;;;;;;;;5054510;28;20029;-56
2024/03/01 02:48:13;;;;;;;25.45;19.35;;;;;;;;;;5054442;28;20440;-55
2024/03/01 02:50:39;;;;;;;25.17;18.45;;;;;;;;;;5054416;28;20024;-57
2024/03/01 02:53:05;;;;;;;26.38;20.20;;;;;;;;;;5055159;28;20033;-57
2024/03/01 02:55:31;;;;;;;28.65;19.27;;;;;;;;;;5055084;28;20024;-54
2024/03/01 02:57:57;;;;;;;24.58;19.23;;;;;;;;;;5054936;28;20436;-57
2024/03/01 03:00:23;;;;;;;30.10;19.73;;;;;;;;;;5054724;28;20029;-57
2024/03/01 03:02:51;;;;;;;25.42;18.55;;;;;;;;;;5054547;28;20029;-57
2024/03/01 03:05:17;;;;;;;26.60;18.33;;;;;;;;;;5054154;28;20065;-54
2024/03/01 03:07:43;;;;;;;28.58;19.70;;;;;;;;;;5054660;28;20024;-56
2024/03/01 03:10:09;;;;;;;26.88;19.02;;;;;;;;;;5054215;28;20455;-55
2024/03/01 03:12:35;;;;;;;33.92;20.35;;;;;;;;;;5054833;28;20025;-53
2024/03/01 03:15:07;;;;;;;24.35;19.02;;;;;;;;;;5054232;28;20021;-55
2024/03/01 03:17:33;;;;;;;30.85;19.75;;;;;;;;;;5054033;28;20025;-57
2024/03/01 03:19:59;;;;;;;26.02;19.17;;;;;;;;;;5054370;28;20028;-56
2024/03/01 03:22:25;;;;;;;34.65;21.27;;;;;;;;;;5054412;28;20037;-57
2024/03/01 03:24:50;;;;;;;24.10;19.10;;;;;;;;;;5054275;28;20379;-56
2024/03/01 03:27:16;;;;;;;28.50;18.08;;;;;;;;;;5053441;28;20032;-56
2024/03/01 03:29:42;;;;;;;27.92;19.85;;;;;;;;;;5054362;28;20028;-53
2024/03/01 03:32:08;;;;;;;29.13;19.80;;;;;;;;;;5053716;28;20158;-55
2024/03/01 03:34:34;;;;;;;27.02;19.52;;;;;;;;;;5054217;28;20037;-57
2024/03/01 03:37:00;;;;;;;27.27;19.40;;;;;;;;;;5053674;28;20446;-54
2024/03/01 03:39:26;;;;;;;24.85;18.33;;;;;;;;;;5054346;28;20029;-54
2024/03/01 03:41:52;;;;;;;34.40;20.70;;;;;;;;;;5053915;28;20059;-54
2024/03/01 03:44:18;;;;;;;27.80;19.20;;;;;;;;;;5054161;28;20029;-57
2024/03/01 03:46:47;;;;;;;30.25;19.67;;;;;;;;;;5054106;28;20029;-54
2024/03/01 03:49:13;;;;;;;29.02;20.23;;;;;;;;;;5054195;28;20068;-57
2024/03/01 03:51:39;;;;;;;25.83;17.83;;;;;;;;;;5053877;28;20048;-54
2024/03/01 03:54:05;;;;;;;27.15;19.02;;;;;;;;;;5057952;28;20078;-53
2024/03/01 03:56:34;;;;;;;29.13;20.85;;;;;;;;;;5057492;28;20128;-51
2024/03/01 03:59:00;;;;;;;28.17;19.30;;;;;;;;;;5057605;28;20032;-56
2024/03/01 04:01:26;;;;;;;35.35;20.38;;;;;;;;;;5057624;28;20033;-57
2024/03/01 04:03:52;;;;;;;30.08;19.65;;;;;;;;;;5058117;28;20363;-54
2024/03/01 04:06:18;;;;;;;25.10;19.05;;;;;;;;;;5057992;28;20115;-57
2024/03/01 04:08:44;;;;;;;25.95;19.13;;;;;;;;;;5058373;28;20111;-57
2024/03/01 04:11:10;;;;;;;35.33;20.52;;;;;;;;;;5057477;28;20113;-56
2024/03/01 04:13:37;;;;;;;27.27;19.77;;;;;;;;;;5057468;28;20040;-57
2024/03/01 04:16:05;;;;;;;30.40;20.48;;;;;;;;;;5057040;28;20112;-57
2024/03/01 04:18:31;;;;;;;27.50;20.27;;;;;;;;;;5058191;28;20029;-57
2024/03/01 04:20:57;;;;;;;28.58;21.40;;;;;;;;;;5057203;28;20025;-55
2024/03/01 04:23:23;;;;;;;32.13;20.10;;;;;;;;;;5057001;28;20386;-54
2024/03/01 04:25:51;;;;;;;23.25;19.15;;;;;;;;;;5057531;28;20135;-57
2024/03/01 04:28:18;;;;;;;31.33;21.20;;;;;;;;;;5057548;28;20021;-54
2024/03/01 04:30:44;;;;;;;28.00;19.85;;;;;;;;;;5057396;28;20060;-57
2024/03/01 04:33:10;;;;;;;27.08;18.75;;;;;;;;;;5057541;28;20052;-54
2024/03/01 04:35:36;;;;;;;27.45;19.65;;;;;;;;;;5057723;28;20523;-57
2024/03/01 04:38:01;;;;;;;23.63;17.77;;;;;;;;;;5057836;28;20351;-55
2024/03/01 04:40:27;;;;;;;30.92;19.63;;;;;;;;;;5056839;28;20029;-54
2024/03/01 04:42:54;;;;;;;25.20;19.08;;;;;;;;;;5056820;28;20025;-55
2024/03/01 04:45:20;;;;;;;31.80;19.85;;;;;;;;;;5056759;28;20035;-52
2024/03/01 04:47:46;;;;;;;24.80;18.17;;;;;;;;;;5057101;28;20033;-57
2024/03/01 04:50:12;;;;;;;25.80;19.25;;;;;;;;;;5057224;28;20025;-56
2024/03/01 04:52:37;;;;;;;34.08;20.38;;;;;;;;;;5056681;28;20025;-53
2024/03/01 04:55:05;;;;;;;24.45;18.50;;;;;;;;;;5057108;28;20119;-57
2024/03/01 04:57:32;;;;;;;27.92;18.48;;;;;;;;;;5056819;28;20128;-57
2024/03/01 04:59:58;;;;;;;27.27;19.80;;;;;;;;;;5056497;28;20079;-54
2024/03/01 05:02:24;;;;;;;28.05;19.73;;;;;;;;;;5056072;28;20037;-55
2024/03/01 05:04:50;;;;;;;31.40;19.73;;;;;;;;;;5057021;28;20060;-54
2024/03/01 05:07:16;;;;;;;28.67;18.73;;;;;;;;;;5057072;28;20056;-52
2024/03/01 05:09:45;;;;;;;25.13;18.02;;;;;;;;;;5057284;28;20063;-55
2024/03/01 05:12:13;;;;;;;26.25;17.35;;;;;;;;;;5056421;28;20109;-55
2024/03/01 05:14:42;;;;;;;28.20;18.88;;;;;;;;;;5056266;28;20025;-55
2024/03/01 05:17:11;;;;;;;28.63;19.23;;;;;;;;;;5056053;28;20486;-56
2024/03/01 05:19:39;;;;;;;24.75;18.58;;;;;;;;;;5056330;28;20063;-54
2024/03/01 05:22:12;;;;;;;24.88;19.42;;;;;;;;;;5056523;28;20029;-56
2024/03/01 05:24:41;;;;;;;28.30;20.55;;;;;;;;;;5056657;28;20447;-53
2024/03/01 05:27:13;;;;;;;23.85;18.27;;;;;;;;;;5056116;28;20024;-53
2024/03/01 05:29:39;;;;;;;22.83;18.35;;;;;;;;;;5056569;28;20025;-53
2024/03/01 05:32:05;;;;;;;27.88;19.02;;;;;;;;;;5055848;28;20029;-52
2024/03/01 05:34:31;;;;;;;24.30;18.73;;;;;;;;;;5056629;28;20174;-55
2024/03/01 05:36:57;;;;;;;29.25;19.67;;;;;;;;;;5055721;28;20039;-49
2024/03/01 05:39:24;;;;;;;30.48;20.08;;;;;;;;;;5056109;28;20112;-51
2024/03/01 05:41:50;;;;;;;29.95;19.33;;;;;;;;;;5056105;28;20029;-51
2024/03/01 05:44:17;;;;;;;25.85;19.65;;;;;;;;;;5055637;28;20108;-54
2024/03/01 05:46:43;;;;;;;31.52;19.40;;;;;;;;;;5055583;28;20025;-55
2024/03/01 05:49:11;;;;;;;32.53;18.63;;;;;;;;;;5056231;28;20374;-56
2024/03/01 05:51:37;;;;;;;30.75;18.75;;;;;;;;;;5056063;28;20477;-55
2024/03/01 05:54:04;;;;;;;27.10;19.17;;;;;;;;;;5055685;28;20380;-53
2024/03/01 05:56:30;;;;;;;28.17;19.95;;;;;;;;;;5055425;28;20379;-57
2024/03/01 05:58:57;;;;;;;33.05;20.30;;;;;;;;;;5055886;28;20033;-55
2024/03/01 06:01:23;;;;;;;27.42;18.75;;;;;;;;;;5055020;28;20025;-56
2024/03/01 06:03:49;;;;;;;34.70;20.63;;;;;;;;;;5054930;28;20033;-52
2024/03/01 06:06:18;;;;;;;29.95;20.95;;;;;;;;;;5055692;28;20044;-56
2024/03/01 06:08:44;;;;;;;29.50;20.95;;;;;;;;;;5055289;28;20041;-54
2024/03/01 06:11:10;;;;;;;26.45;18.23;;;;;;;;;;5055904;28;20025;-58
2024/03/01 06:13:38;;;;;;;28.85;18.85;;;;;;;;;;5055598;28;20414;-57
2024/03/01 06:16:04;;;;;;;26.45;18.83;;;;;;;;;;5054288;28;20389;-57
2024/03/01 06:18:30;;;;;;;34.92;20.27;;;;;;;;;;5055304;28;20025;-53
2024/03/01 06:20:56;;;;;;;26.00;18.98;;;;;;;;;;5055476;28;20036;-54
2024/03/01 06:23:22;;;;;;;30.17;18.58;;;;;;;;;;5055426;28;20036;-54
2024/03/01 06:25:48;;;;;;;28.42;18.70;;;;;;;;;;5054536;28;20083;-54
2024/03/01 06:28:14;;;;;;;27.45;19.00;;;;;;;;;;5055004;28;20483;-55
2024/03/01 06:30:40;;;;;;;23.13;18.33;;;;;;;;;;5055117;28;20496;-56
2024/03/01 06:33:06;;;;;;;36.35;19.25;;;;;;;;;;5055363;28;20036;-56
2024/03/01 06:35:32;;;;;;;29.73;19.95;;;;;;;;;;5054792;28;20104;-53
2024/03/01 06:37:58;;;;;;;24.60;20.70;;;;;;;;;;5055394;28;20506;-54
2024/03/01 06:40:24;;;;;;;25.33;19.30;;;;;;;;;;5054894;28;20104;-54
2024/03/01 06:42:50;;;;;;;28.48;19.90;;;;;;;;;;5054340;28;20040;-55
2024/03/01 06:45:16;;;;;;;24.92;18.00;;;;;;;;;;5054235;28;20028;-54
2024/03/01 06:47:42;;;;;;;25.73;17.88;;;;;;;;;;5054775;28;20107;-56
2024/03/01 06:50:09;;;;;;;31.92;19.75;;;;;;;;;;5054066;28;20021;-57
2024/03/01 06:52:35;;;;;;;28.17;20.30;;;;;;;;;;5054349;28;20526;-57
2024/03/01 06:55:01;;;;;;;27.77;18.70;;;;;;;;;;5054432;28;20160;-55
2024/03/01 06:57:27;;;;;;;27.90;19.80;;;;;;;;;;5054476;28;20049;-55
2024/03/01 06:59:53;;;;;;;31.80;20.27;;;;;;;;;;5054114;28;20029;-54
2024/03/01 07:02:19;;;;;;;26.65;21.27;;;;;;;;;;5054242;28;20033;-57
2024/03/01 07:04:47;;;;;;;23.23;19.38;;;;;;;;;;5053911;28;20158;-57
2024/03/01 07:07:16;;;;;;;27.83;20.45;;;;;;;;;;5054264;28;20463;-57
2024/03/01 07:09:42;;;;;;;23.40;20.00;;;;;;;;;;5054705;28;20028;-56
2024/03/01 07:12:08;;;;;;;26.13;18.92;;;;;;;;;;5054124;28;20029;-57
2024/03/01 07:14:34;;;;;;;28.33;20.50;;;;;;;;;;5054065;28;20532;-57
2024/03/01 07:17:00;;;;;;;27.05;19.10;;;;;;;;;;5054008;28;20035;-56
2024/03/01 07:19:26;;;;;;;29.30;19.83;;;;;;;;;;5054858;28;20036;-53
2024/03/01 07:21:52;;;;;;;28.77;19.08;;;;;;;;;;5054712;28;20425;-55
2024/03/01 07:24:18;;;;;;;29.67;19.23;;;;;;;;;;5054164;28;20029;-55
2024/03/01 07:26:44;;;;;;;29.10;18.92;;;;;;;;;;5053191;28;20025;-56
2024/03/01 07:29:10;;;;;;;28.35;19.65;;;;;;;;;;5054193;28;20032;-54
2024/03/01 07:31:36;;;;;;;28.25;18.23;;;;;;;;;;5053753;28;20033;-56
2024/03/01 07:34:02;;;;;;;26.08;19.50;;;;;;;;;;5054037;28;20025;-57
2024/03/01 07:36:28;;;;;;;24.73;17.92;;;;;;;;;;5053477;28;20067;-56
2024/03/01 07:38:54;;;;;;;26.30;18.50;;;;;;;;;;5054632;28;20121;-56
2024/03/01 07:41:21;;;;;;;25.58;19.73;;;;;;;;;;5054185;28;20060;-52
2024/03/01 07:43:48;;;;;;;27.40;19.15;;;;;;;;;;5053653;28;20044;-57
2024/03/01 07:46:14;;;;;;;24.98;18.48;;;;;;;;;;5053689;28;20378;-57
2024/03/01 07:48:40;;;;;;;28.85;19.42;;;;;;;;;;5054257;28;20367;-56
2024/03/01 07:51:06;;;;;;;25.77;20.33;;;;;;;;;;5053856;28;20029;-56
2024/03/01 07:53:32;;;;;;;28.20;19.85;;;;;;;;;;5053144;28;20062;-53
2024/03/01 07:55:58;;;;;;;24.80;19.38;;;;;;;;;;5053357;28;20029;-55
2024/03/01 07:58:24;;;;;;;23.60;18.52;;;;;;;;;;5053891;28;20041;-55
2024/03/01 08:00:50;;;;;;;26.42;19.02;;;;;;;;;;5053343;28;20090;-57
2024/03/01 08:03:16;;;;;;;24.25;17.88;;;;;;;;;;5053912;28;20041;-57
2024/03/01 08:05:42;;;;;;;28.42;16.70;;;;;;;;;;5053310;28;20032;-55
2024/03/01 08:08:08;;;;;;;23.05;16.48;;;;;;;;;;5053890;28;20370;-56
2024/03/01 08:10:35;;;;;;;22.20;17.15;;;;;;;;;;5053397;28;20040;-56
2024/03/01 08:13:01;;;;;;;20.10;16.23;;;;;;;;;;5053435;28;20025;-57
2024/03/01 08:15:41;;;;;;;23.45;17.42;;;;;;;;;;5053368;28;20111;-57
2024/03/01 08:18:24;;;;;;;25.05;17.70;;;;;;;;;;5053329;28;20021;-55
2024/03/01 08:20:54;;;;;;;25.20;17.50;;;;;;;;;;5053561;28;20455;-54
2024/03/01 08:23:20;;;;;;;22.98;16.42;;;;;;;;;;5053183;28;20105;-56
2024/03/01 08:25:47;;;;;;;21.83;16.70;;;;;;;;;;5053758;28;20116;-54
2024/03/01 08:28:18;;;;;;;25.08;16.67;;;;;;;;;;5053237;28;20017;-55
2024/03/01 08:30:44;;;;;;;19.63;17.42;;;;;;;;;;5053263;28;20483;-54
2024/03/01 08:33:12;;;;;;;20.27;16.05;;;;;;;;;;5053919;28;20339;-54
2024/03/01 08:35:41;;;;;;;18.20;14.02;;;;;;;;;;5053526;28;20359;-57
2024/03/01 08:38:26;;;;;;;17.83;14.25;;;;;;;;;;5054750;28;20013;-54
2024/03/01 08:40:54;;;;;;;18.20;14.60;;;;;;;;;;5056966;28;20409;-50
2024/03/01 08:43:20;;;;;;;16.73;14.90;;;;;;;;;;5057344;28;20367;-53
2024/03/01 08:45:46;;;;;;;23.20;15.40;;;;;;;;;;5057305;28;20025;-56
2024/03/01 08:48:18;;;;;;;19.70;15.70;;;;;;;;;;5057939;28;20020;-52
2024/03/01 08:50:47;;;;;;;19.80;15.65;;;;;;;;;;5057225;28;20029;-57
2024/03/01 08:53:32;;;;;;;17.50;15.63;;;;;;;;;;5057281;28;20036;-56
2024/03/01 08:55:58;;;;;;;23.20;14.90;;;;;;;;;;5056496;28;20029;-52
2024/03/01 08:58:25;;;;;;;22.65;15.65;;;;;;;;;;5056729;28;20029;-54
2024/03/01 09:00:53;;;;;;;16.40;13.35;;;;;;;;;;5057389;28;20347;-56
2024/03/01 09:03:25;;;;;;;18.02;12.63;;;;;;;;;;5056883;28;20033;-57
2024/03/01 09:05:53;;;;;;;16.58;13.30;;;;;;;;;;5056779;28;20076;-54
2024/03/01 09:08:24;;;;;;;15.45;13.02;;;;;;;;;;5057016;28;20029;-54
2024/03/01 09:10:57;;;;;;;19.17;12.50;;;;;;;;;;5056954;28;20029;-57
2024/03/01 09:13:24;;;;;;;15.45;12.55;;;;;;;;;;5056860;28;20040;-57
2024/03/01 09:15:50;;;;;;;16.77;11.45;;;;;;;;;;5056710;28;20440;-57
2024/03/01 09:18:31;;;;;;;14.68;12.32;;;;;;;;;;5056756;28;20025;-57
2024/03/01 09:20:57;;;;;;;16.90;12.60;;;;;;;;;;5055800;28;20498;-56
2024/03/01 09:23:23;;;;;;;14.15;10.95;;;;;;;;;;5056702;28;20037;-58
2024/03/01 09:25:49;;;;;;;14.65;11.77;;;;;;;;;;5056915;28;20414;-51
2024/03/01 09:28:17;;;;;;;14.10;11.10;;;;;;;;;;5056274;28;20367;-56
2024/03/01 09:30:46;;;;;;;15.63;9.98;;;;;;;;;;5056206;28;20060;-53
2024/03/01 09:33:19;;;;;;;15.82;10.77;;;;;;;;;;5056008;28;20056;-55
2024/03/01 09:35:45;;;;;;;13.85;10.63;;;;;;;;;;5055960;28;20028;-52
2024/03/01 09:38:12;;;;;;;13.23;9.63;;;;;;;;;;5056527;28;20107;-56
2024/03/01 09:41:01;;;;;;;11.90;9.45;;;;;;;;;;5055751;28;20114;-55
2024/03/01 09:43:39;;;;;;;12.68;7.85;;;;;;;;;;5053064;28;20037;-56
2024/03/01 09:46:08;;;;;;;10.55;8.27;;;;;;;;;;5055848;28;20068;-54
2024/03/01 09:48:40;;;;;;;12.63;9.13;;;;;;;;;;5056372;28;20029;-53
2024/03/01 09:51:09;;;;;;;10.27;8.52;;;;;;;;;;5054744;28;20056;-56
2024/03/01 09:53:53;;;;;;;8.90;7.78;;;;;;;;;;5055542;28;20059;-55
2024/03/01 09:56:19;;;;;;;10.00;7.20;;;;;;;;;;5055354;28;20052;-55
2024/03/01 09:58:49;;;;;;;12.02;7.80;;;;;;;;;;5056012;28;20119;-56
2024/03/01 10:01:21;;;;;;;10.65;8.70;;;;;;;;;;5055067;28;20021;-56
2024/03/01 10:03:54;;;;;;;11.35;8.63;;;;;;;;;;5055268;28;20067;-56
2024/03/01 10:06:32;;;;;;;10.82;8.68;;;;;;;;;;5055065;28;20037;-56
2024/03/01 10:09:11;;;;;;;11.60;8.57;;;;;;;;;;5056016;28;20032;-56
2024/03/01 10:11:55;;;;;;;11.02;8.38;;;;;;;;;;5055383;28;20029;-53
2024/03/01 10:14:26;;;;;;;10.13;6.85;;;;;;;;;;5055493;28;20431;-56
2024/03/01 10:16:58;;;;;;;10.20;7.35;;;;;;;;;;5055598;28;20501;-53
2024/03/01 10:19:43;;;;;;;13.10;6.93;;;;;;;;;;5055295;28;20035;-56
2024/03/01 10:22:19;;;;;;;9.15;7.05;;;;;;;;;;5055417;28;20073;-56
2024/03/01 10:25:04;;;;;;;7.75;6.18;;;;;;;;;;5055242;28;20036;-53
2024/03/01 10:27:33;;;;;;;10.57;7.45;;;;;;;;;;5054735;28;20017;-53
2024/03/01 10:30:08;;;;;;;9.93;7.38;;;;;;;;;;5055029;28;20028;-55
2024/03/01 10:33:03;;;;;;;9.40;6.55;;;;;;;;;;5054400;28;20159;-55
2024/03/01 10:35:47;;;;;;;7.95;5.53;;;;;;;;;;5054914;28;20025;-53
2024/03/01 10:38:24;;;;;;;7.63;6.15;;;;;;;;;;5054699;28;20036;-55
2024/03/01 10:41:04;;;;;;;7.93;5.70;;;;;;;;;;5055113;28;20033;-55
2024/03/01 10:43:41;;;;;;;8.23;6.55;;;;;;;;;;5054647;28;20356;-55
2024/03/01 10:46:13;;;;;;;8.32;6.22;;;;;;;;;;5054774;28;20032;-56
2024/03/01 10:48:47;;;;;;;9.30;6.68;;;;;;;;;;5055120;28;20029;-56
2024/03/01 10:51:16;;;;;;;8.13;6.40;;;;;;;;;;5055307;28;20035;-56
2024/03/01 10:53:45;;;;;;;10.70;6.60;;;;;;;;;;5054381;28;20031;-55
2024/03/01 10:56:14;;;;;;;7.93;6.22;;;;;;;;;;5054253;28;20147;-55
2024/03/01 10:58:44;;;;;;;5.78;5.18;;;;;;;;;;5054973;28;20021;-56
2024/03/01 11:01:19;;;;;;;10.38;7.50;;;;;;;;;;5054021;28;20375;-55
2024/03/01 11:03:47;;;;;;;9.25;6.28;;;;;;;;;;5054886;28;20370;-56
2024/03/01 11:06:13;;;;;;;9.57;7.15;;;;;;;;;;5054773;28;20061;-56
2024/03/01 11:08:45;;;;;;;8.43;6.15;;;;;;;;;;5055066;28;20025;-56
2024/03/01 11:11:17;;;;;;;7.47;5.85;;;;;;;;;;5054724;28;20463;-56
2024/03/01 11:13:44;;;;;;;9.52;7.38;;;;;;;;;;5054135;28;20097;-56
2024/03/01 11:16:13;;;;;;;9.20;6.88;;;;;;;;;;5053907;28;20537;-56
2024/03/01 11:18:50;;;;;;;8.38;6.65;;;;;;;;;;5054330;28;20036;-57
2024/03/01 11:21:18;;;;;;;8.27;6.65;;;;;;;;;;5054428;28;20424;-56
2024/03/01 11:23:48;;;;;;;11.85;7.75;;;;;;;;;;5053820;28;20036;-55
2024/03/01 11:26:14;;;;;;;10.15;7.00;;;;;;;;;;5053951;28;20035;-56
2024/03/01 11:28:41;;;;;;;9.10;6.85;;;;;;;;;;5053946;28;20108;-57
2024/03/01 11:31:14;;;;;;;8.18;7.20;;;;;;;;;;5054092;28;20028;-56
2024/03/01 11:33:42;;;;;;;9.60;6.55;;;;;;;;;;5054378;28;20436;-57
2024/03/01 11:36:10;;;;;;;8.65;6.53;;;;;;;;;;5053803;28;20017;-55
2024/03/01 11:38:40;;;;;;;8.35;6.60;;;;;;;;;;5054301;28;20025;-57
2024/03/01 11:41:09;;;;;;;7.88;6.13;;;;;;;;;;5053329;28;20111;-55
2024/03/01 11:43:54;;;;;;;9.02;6.68;;;;;;;;;;5053655;28;20040;-56
2024/03/01 11:46:30;;;;;;;8.63;6.70;;;;;;;;;;5053927;28;20363;-52
2024/03/01 11:49:11;;;;;;;9.23;6.22;;;;;;;;;;5053296;28;20039;-54
2024/03/01 11:51:58;;;;;;;8.98;5.75;;;;;;;;;;5054094;28;20032;-56
2024/03/01 11:54:30;;;;;;;8.27;5.47;;;;;;;;;;5049597;28;20044;-56
2024/03/01 11:57:16;;;;;;;7.40;5.63;;;;;;;;;;5053352;28;20084;-56
2024/03/01 11:59:42;;;;;;;9.48;6.40;;;;;;;;;;5042602;28;20087;-57
2024/03/01 12:02:26;;;;;;;6.30;4.88;;;;;;;;;;5053355;28;20150;-57
2024/03/01 12:05:02;;;;;;;9.00;5.18;;;;;;;;;;5053361;28;20490;-57
2024/03/01 12:07:37;;;;;;;7.30;5.18;;;;;;;;;;5053797;28;20448;-57
2024/03/01 12:10:09;;;;;;;5.88;4.18;;;;;;;;;;5054030;28;20025;-56
2024/03/01 12:12:38;;;;;;;6.93;5.25;;;;;;;;;;5053620;28;20033;-56
2024/03/01 12:15:12;;;;;;;7.25;5.22;;;;;;;;;;5057560;28;20502;-56
2024/03/01 12:17:38;;;;;;;6.00;5.35;;;;;;;;;;5058058;28;20025;-54
2024/03/01 12:20:06;;;;;;;7.20;5.10;;;;;;;;;;5057837;28;20099;-57
2024/03/01 12:22:50;;;;;;;6.80;4.85;;;;;;;;;;5056971;28;20170;-54
2024/03/01 12:25:18;;;;;;;6.35;5.32;;;;;;;;;;5057668;28;20025;-57
2024/03/01 12:28:08;;;;;;;6.15;5.32;;;;;;;;;;5056738;28;20486;-57
2024/03/01 12:30:36;;;;;;;7.43;5.17;;;;;;;;;;5057535;28;20062;-56
2024/03/01 12:33:04;;;;;;;7.93;5.53;;;;;;;;;;5057089;28;20733;-57
2024/03/01 12:35:29;;;;;;;8.45;6.05;;;;;;;;;;5057671;28;20033;-56
2024/03/01 12:37:55;;;;;;;6.78;5.00;;;;;;;;;;5056915;28;20029;-55
2024/03/01 12:40:23;;;;;;;6.15;5.25;;;;;;;;;;5056794;28;20082;-54
2024/03/01 12:42:49;;;;;;;9.10;4.65;;;;;;;;;;5056782;28;20025;-57
2024/03/01 12:45:28;;;;;;;4.70;4.20;;;;;;;;;;5056767;28;20028;-55
2024/03/01 12:47:59;;;;;;;6.45;4.95;;;;;;;;;;5056753;28;20040;-57
2024/03/01 12:50:25;;;;;;;6.10;3.97;;;;;;;;;;5057521;28;20323;-55
2024/03/01 12:53:17;;;;;;;3.97;3.47;;;;;;;;;;5056980;28;20036;-56
2024/03/01 12:55:57;;;;;;;4.13;3.40;;;;;;;;;;5048020;28;20044;-55
2024/03/01 12:58:28;;;;;;;4.72;3.58;;;;;;;;;;5056763;28;20503;-56
2024/03/01 13:01:20;;;;;;;4.85;3.10;;;;;;;;;;5056423;28;20123;-54
2024/03/01 13:04:07;;;;;;;4.18;2.88;;;;;;;;;;5056004;28;20452;-56
2024/03/01 13:06:34;;;;;;;4.60;2.42;;;;;;;;;;5056685;28;20029;-56
2024/03/01 13:09:14;;;;;;;3.55;2.67;;;;;;;;;;5056738;28;20426;-57
2024/03/01 13:11:41;;;;;;;4.85;3.00;;;;;;;;;;5057049;28;20036;-57
2024/03/01 13:14:26;;;;;;;3.35;2.50;;;;;;;;;;5056180;28;20025;-56
2024/03/01 13:16:56;;;;;;;5.35;2.60;;;;;;;;;;5056245;28;20029;-55
2024/03/01 13:19:26;;;;;;;4.20;3.00;;;;;;;;;;5057021;28;20078;-57
2024/03/01 13:21:52;;;;;;;;;;;;;;;;;;5057076;28;20033;-54
2024/03/01 13:24:51;;;;;;;3.40;2.53;;;;;;;;;;5055703;28;19915;-57
2024/03/01 13:27:23;;;;;;;4.82;2.90;;;;;;;;;;5043771;28;20124;-56
2024/03/01 13:29:52;;;;;;;4.72;3.45;;;;;;;;;;5056368;28;20029;-56
2024/03/01 13:32:27;;;;;;;3.90;2.72;;;;;;;;;;5055987;28;20051;-56
2024/03/01 13:34:58;;;;;;;4.63;3.00;;;;;;;;;;5056521;28;20036;-56
2024/03/01 13:37:32;;;;;;;4.82;3.42;;;;;;;;;;5056177;28;20029;-55
2024/03/01 13:39:58;;;;;;;5.07;3.40;;;;;;;;;;5056282;28;20536;-55
2024/03/01 13:42:41;;;;;;;14.35;9.48;;;;;;;;;;5055711;28;20033;-56
2024/03/01 13:45:11;;;;;;;12.85;11.50;;;;;;;;;;5056029;28;20040;-56
2024/03/01 13:47:38;;;;;;;;;;;;;;;;;;5056014;28;20025;-57
2024/03/01 13:50:06;;;;;;;14.40;11.10;;;;;;;;;;5056253;28;19912;-57
2024/03/01 13:52:33;;;;;;;14.25;11.20;;;;;;;;;;5055600;28;20036;-56
2024/03/01 13:54:59;;;;;;;15.88;11.95;;;;;;;;;;5055554;28;20021;-56
2024/03/01 13:57:26;;;;;;;13.98;12.15;;;;;;;;;;5055519;28;20471;-57
2024/03/01 13:59:52;;;;;;;17.17;12.15;;;;;;;;;;5055162;28;20467;-57
2024/03/01 14:02:45;;;;;;;16.23;12.25;;;;;;;;;;5055900;28;20029;-57
2024/03/01 14:05:14;;;;;;;15.77;11.60;;;;;;;;;;5049005;28;20041;-55
2024/03/01 14:07:40;;;;;;;15.77;11.90;;;;;;;;;;5055099;28;20112;-56
2024/03/01 14:10:07;;;;;;;14.88;12.90;;;;;;;;;;5055969;28;20090;-56
2024/03/01 14:12:32;;;;;;;15.63;12.77;;;;;;;;;;5054753;28;20031;-55
2024/03/01 14:14:58;;;;;;;17.88;13.65;;;;;;;;;;5055210;28;20119;-54
2024/03/01 14:17:24;;;;;;;15.93;12.52;;;;;;;;;;5055162;28;20033;-57
2024/03/01 14:19:52;;;;;;;13.38;11.95;;;;;;;;;;5055144;28;20069;-54
2024/03/01 14:22:18;;;;;;;12.50;11.05;;;;;;;;;;5054266;28;20029;-55
2024/03/01 14:24:44;;;;;;;17.25;12.20;;;;;;;;;;5054881;28;20107;-55
2024/03/01 14:27:10;;;;;;;17.55;14.27;;;;;;;;;;5055345;28;20036;-57
2024/03/01 14:29:36;;;;;;;17.88;12.98;;;;;;;;;;5055498;28;20025;-55
2024/03/01 14:32:07;;;;;;;16.27;11.63;;;;;;;;;;5055650;28;20431;-54
2024/03/01 14:34:38;;;;;;;16.17;12.82;;;;;;;;;;5054813;28;20033;-55